Time;durP1;ratioP1;P1;durP2;ratioP2;P2;SDS_P1;SDS_P2;PMS_P1;PMS_P2;Temp;Humidity;BMP_temperature;BMP_pressure;BME280_temperature;BME280_humidity;BME280_pressure;Samples;Min_cycle;Max_cycle;Signal;HPM_P1;HPM_P2
2024/03/17 00:00:14;;;;;;;29.17;12.75;;;;;;;7.46;100.00;102266.44;5253849;28;20073;-73
2024/03/17 00:02:46;;;;;;;24.65;13.43;;;;;;;7.46;100.00;102252.25;5249716;28;20034;-73
2024/03/17 00:05:18;;;;;;;24.40;12.10;;;;;;;7.44;100.00;102249.69;5257858;28;20024;-73
2024/03/17 00:07:49;;;;;;;22.17;11.07;;;;;;;7.47;100.00;102243.28;5250235;28;20020;-74
2024/03/17 00:10:19;;;;;;;22.77;12.05;;;;;;;7.52;100.00;102241.13;5256199;28;20065;-73
2024/03/17 00:12:51;;;;;;;24.63;11.27;;;;;;;7.55;100.00;102237.38;5254794;28;20060;-73
2024/03/17 00:15:22;;;;;;;20.90;9.82;;;;;;;7.58;100.00;102237.13;5253616;28;20029;-73
2024/03/17 00:17:53;;;;;;;17.92;9.15;;;;;;;7.63;100.00;102232.31;5254319;28;20521;-76
2024/03/17 00:20:24;;;;;;;17.90;8.50;;;;;;;7.67;100.00;102245.31;5249581;28;20021;-74
2024/03/17 00:22:55;;;;;;;19.25;8.88;;;;;;;7.72;100.00;102227.13;5256143;28;20028;-75
2024/03/17 00:25:25;;;;;;;15.02;7.88;;;;;;;7.77;100.00;102224.97;5249424;28;20024;-74
2024/03/17 00:27:57;;;;;;;11.48;6.88;;;;;;;7.79;100.00;102224.88;5254252;28;20028;-74
2024/03/17 00:30:28;;;;;;;15.32;7.47;;;;;;;7.79;100.00;102222.22;5250351;28;20040;-73
2024/03/17 00:32:59;;;;;;;17.70;7.88;;;;;;;7.81;100.00;102217.59;5253654;28;20402;-76
2024/03/17 00:35:30;;;;;;;14.20;7.35;;;;;;;7.80;100.00;102215.91;5250455;28;20027;-74
2024/03/17 00:38:03;;;;;;;14.43;7.32;;;;;;;7.78;100.00;102217.81;5246951;28;20040;-77
2024/03/17 00:40:34;;;;;;;18.98;9.30;;;;;;;7.75;100.00;102218.06;5250832;28;20540;-75
2024/03/17 00:43:04;;;;;;;15.77;7.65;;;;;;;7.71;100.00;102213.91;5254514;28;20104;-73
2024/03/17 00:45:35;;;;;;;19.73;6.80;;;;;;;7.67;100.00;102209.75;5255008;28;20032;-73
2024/03/17 00:48:07;;;;;;;13.23;6.32;;;;;;;7.66;100.00;102202.72;5253956;28;20020;-75
2024/03/17 00:50:37;;;;;;;12.88;6.63;;;;;;;7.67;100.00;102209.75;5253421;28;20110;-75
2024/03/17 00:53:08;;;;;;;12.40;5.85;;;;;;;7.67;100.00;102204.41;5249972;28;20028;-73
2024/03/17 00:55:39;;;;;;;14.18;5.97;;;;;;;7.67;100.00;102205.25;5252471;28;20027;-73
2024/03/17 00:58:10;;;;;;;14.68;6.28;;;;;;;7.68;100.00;102195.44;5253917;28;20016;-74
2024/03/17 01:00:41;;;;;;;12.45;6.47;;;;;;;7.66;100.00;102202.72;5249603;28;20030;-73
2024/03/17 01:03:11;;;;;;;13.45;6.05;;;;;;;7.62;100.00;102204.75;5251074;28;20409;-73
2024/03/17 01:05:44;;;;;;;13.93;6.40;;;;;;;7.61;100.00;102205.72;5255130;28;20032;-76
2024/03/17 01:08:14;;;;;;;12.55;5.82;;;;;;;7.61;100.00;102204.88;5255939;28;20078;-73
2024/03/17 01:10:49;;;;;;;13.18;5.70;;;;;;;7.61;100.00;102205.72;5256059;28;20028;-73
2024/03/17 01:13:20;;;;;;;13.63;5.70;;;;;;;7.57;100.00;102198.06;5252331;28;20020;-75
2024/03/17 01:15:52;;;;;;;11.32;5.97;;;;;;;7.52;100.00;102204.56;5253392;28;20042;-73
2024/03/17 01:18:22;;;;;;;13.25;6.22;;;;;;;7.48;100.00;102207.59;5253103;28;20035;-74
2024/03/17 01:20:53;;;;;;;13.25;5.95;;;;;;;7.42;100.00;102208.03;5247772;28;20029;-73
2024/03/17 01:23:23;;;;;;;11.27;6.43;;;;;;;7.43;100.00;102213.28;5255300;28;20020;-73
2024/03/17 01:25:54;;;;;;;13.65;6.20;;;;;;;7.39;100.00;102206.47;5248606;28;20382;-74
2024/03/17 01:28:26;;;;;;;13.75;6.20;;;;;;;7.39;100.00;102208.28;5253924;28;20024;-74
2024/03/17 01:30:56;;;;;;;13.88;6.65;;;;;;;7.39;100.00;102208.28;5251530;28;20021;-73
2024/03/17 01:33:27;;;;;;;14.75;6.25;;;;;;;7.40;100.00;102204.66;5248039;28;20035;-73
2024/03/17 01:35:57;;;;;;;11.30;6.22;;;;;;;7.40;100.00;102197.50;5253276;28;20440;-73
2024/03/17 01:38:28;;;;;;;14.32;7.00;;;;;;;7.41;100.00;102187.66;5254920;28;20058;-76
2024/03/17 01:40:59;;;;;;;13.38;6.50;;;;;;;7.42;100.00;102190.19;5250880;28;20099;-75
2024/03/17 01:43:30;;;;;;;13.73;6.30;;;;;;;7.43;100.00;102178.59;5252456;28;20027;-74
2024/03/17 01:46:02;;;;;;;11.73;6.63;;;;;;;7.42;100.00;102179.53;5255665;28;20058;-75
2024/03/17 01:48:33;;;;;;;9.90;5.85;;;;;;;7.43;100.00;102173.25;5259180;28;20024;-75
2024/03/17 01:51:04;;;;;;;14.38;7.10;;;;;;;7.44;100.00;102174.09;5250073;28;20095;-73
2024/03/17 01:53:35;;;;;;;11.15;5.97;;;;;;;7.43;100.00;102178.59;5251322;28;20112;-77
2024/03/17 01:56:10;;;;;;;12.60;6.35;;;;;;;7.44;100.00;102171.41;5249656;28;20498;-73
2024/03/17 01:58:50;;;;;;;13.23;6.22;;;;;;;7.47;100.00;102165.84;5253048;28;20036;-73
2024/03/17 02:01:20;;;;;;;18.85;7.57;;;;;;;7.49;100.00;102162.09;5250075;28;20012;-73
2024/03/17 02:03:51;;;;;;;14.80;7.20;;;;;;;7.54;100.00;102161.75;5249486;28;20013;-74
2024/03/17 02:06:30;;;;;;;15.50;6.38;;;;;;;7.58;100.00;102154.34;5255814;28;20027;-73
2024/03/17 02:09:01;;;;;;;13.57;6.72;;;;;;;7.58;100.00;102154.34;5248010;28;21422;-75
2024/03/17 02:11:33;;;;;;;11.13;5.95;;;;;;;7.58;100.00;102147.22;5253645;28;20024;-73
2024/03/17 02:14:06;;;;;;;12.77;7.00;;;;;;;7.58;100.00;102147.22;5250111;28;20017;-73
2024/03/17 02:16:36;;;;;;;15.40;6.70;;;;;;;7.58;100.00;102144.53;5252343;28;20028;-73
2024/03/17 02:19:07;;;;;;;13.80;7.18;;;;;;;7.58;100.00;102136.53;5252328;28;20385;-76
2024/03/17 02:21:38;;;;;;;17.08;7.55;;;;;;;7.63;100.00;102138.81;5250217;28;20023;-73
2024/03/17 02:24:08;;;;;;;16.58;7.60;;;;;;;7.65;100.00;102143.09;5250369;28;20032;-73
2024/03/17 02:26:39;;;;;;;13.30;6.80;;;;;;;7.67;100.00;102151.84;5255361;28;20030;-73
2024/03/17 02:29:09;;;;;;;15.93;7.38;;;;;;;7.72;100.00;102152.34;5250139;28;20020;-73
2024/03/17 02:31:40;;;;;;;14.93;7.55;;;;;;;7.74;100.00;102146.91;5252683;28;20428;-73
2024/03/17 02:34:10;;;;;;;13.38;7.28;;;;;;;7.72;100.00;102143.47;5249697;28;20020;-73
2024/03/17 02:36:41;;;;;;;15.45;8.00;;;;;;;7.75;100.00;102140.59;5252880;28;20028;-73
2024/03/17 02:42:02;;;;;;;11.73;6.80;;;;;;;7.75;100.00;102133.41;5248027;28;20040;-73
2024/03/17 02:44:35;;;;;;;14.15;7.07;;;;;;;7.75;100.00;102136.09;5253461;28;20481;-75
2024/03/17 02:47:10;;;;;;;12.35;7.10;;;;;;;7.76;100.00;102124.44;5249333;28;20081;-76
2024/03/17 02:49:43;;;;;;;13.90;6.80;;;;;;;7.79;100.00;102112.69;5250471;28;20021;-73
2024/03/17 02:52:14;;;;;;;13.27;6.72;;;;;;;7.82;100.00;102116.91;5256159;28;20474;-75
2024/03/17 02:54:45;;;;;;;12.63;6.55;;;;;;;7.83;100.00;102111.47;5259108;28;20478;-73
2024/03/17 02:57:16;;;;;;;15.85;7.28;;;;;;;7.84;100.00;102105.16;5258803;28;20078;-75
2024/03/17 02:59:46;;;;;;;12.82;8.00;;;;;;;7.87;100.00;102096.03;5256582;28;20029;-73
2024/03/17 03:02:17;;;;;;;19.67;7.70;;;;;;;7.89;100.00;102097.66;5254918;28;20009;-74
2024/03/17 03:04:51;;;;;;;14.75;6.97;;;;;;;7.88;100.00;102090.59;5256663;28;20055;-73
2024/03/17 03:07:22;;;;;;;15.13;7.00;;;;;;;7.89;100.00;102091.44;5259669;28;20454;-76
2024/03/17 03:09:52;;;;;;;10.90;6.75;;;;;;;7.88;100.00;102089.72;5263004;28;20505;-73
2024/03/17 03:12:23;;;;;;;14.95;7.57;;;;;;;7.86;100.00;102097.88;5263919;28;20032;-73
2024/03/17 03:14:54;;;;;;;15.45;8.02;;;;;;;7.87;100.00;102091.53;5267084;28;20036;-74
2024/03/17 03:17:25;;;;;;;14.35;8.00;;;;;;;7.88;100.00;102093.28;5262846;28;20093;-73
2024/03/17 03:20:05;;;;;;;19.63;8.07;;;;;;;7.88;100.00;102085.25;5259021;28;20068;-73
2024/03/17 03:22:36;;;;;;;14.18;7.35;;;;;;;7.91;100.00;102092.16;5255252;28;20024;-76
2024/03/17 03:25:07;;;;;;;13.80;8.02;;;;;;;7.90;100.00;102090.47;5253965;28;20141;-74
2024/03/17 03:27:50;;;;;;;19.20;9.00;;;;;;;7.90;100.00;102077.13;5264262;28;20055;-73
2024/03/17 03:30:21;;;;;;;16.58;8.10;;;;;;;7.90;100.00;102077.13;5255690;28;20470;-73
2024/03/17 03:32:54;;;;;;;16.73;7.95;;;;;;;7.88;100.00;102084.38;5258532;28;20024;-73
2024/03/17 03:35:28;;;;;;;17.45;7.82;;;;;;;7.87;100.00;102072.84;5259271;28;20027;-73
2024/03/17 03:37:59;;;;;;;16.20;7.18;;;;;;;7.85;100.00;102072.13;5257889;28;20119;-75
2024/03/17 03:40:30;;;;;;;14.57;7.75;;;;;;;7.86;100.00;102071.16;5261187;28;20012;-73
2024/03/17 03:43:02;;;;;;;19.38;8.90;;;;;;;7.86;100.00;102062.28;5258488;28;20042;-73
2024/03/17 03:45:33;;;;;;;18.65;8.43;;;;;;;7.88;100.00;102073.69;5261347;28;20452;-76
2024/03/17 03:48:04;;;;;;;16.85;8.18;;;;;;;7.94;100.00;102070.56;5260387;28;20021;-74
2024/03/17 03:50:35;;;;;;;20.20;8.20;;;;;;;7.97;100.00;102068.50;5258769;28;20032;-73
2024/03/17 03:53:06;;;;;;;16.08;8.23;;;;;;;8.01;100.00;102061.09;5256938;28;20023;-74
2024/03/17 03:55:37;;;;;;;17.27;7.50;;;;;;;8.03;100.00;102054.66;5258306;28;20031;-74
2024/03/17 03:58:07;;;;;;;23.45;9.02;;;;;;;8.08;100.00;102062.28;5258899;28;20021;-73
2024/03/17 04:00:39;;;;;;;14.05;7.68;;;;;;;8.08;100.00;102045.41;5252146;28;20032;-73
2024/03/17 04:03:09;;;;;;;19.02;8.75;;;;;;;8.09;100.00;102049.81;5255010;28;20016;-73
2024/03/17 04:05:40;;;;;;;15.32;8.30;;;;;;;8.08;100.00;102048.09;5260019;28;20116;-75
2024/03/17 04:08:11;;;;;;;14.57;7.95;;;;;;;8.03;100.00;102041.31;5256137;28;20028;-73
2024/03/17 04:10:44;;;;;;;20.90;8.50;;;;;;;7.99;100.00;102045.19;5255900;28;20051;-72
2024/03/17 04:13:14;;;;;;;17.02;7.50;;;;;;;7.93;100.00;102043.00;5249720;28;20062;-73
2024/03/17 04:15:45;;;;;;;15.90;7.75;;;;;;;7.88;100.00;102042.50;5257253;28;20056;-73
2024/03/17 04:18:17;;;;;;;18.90;9.13;;;;;;;7.83;100.00;102041.13;5265292;28;20444;-74
2024/03/17 04:20:48;;;;;;;16.90;8.30;;;;;;;7.78;100.00;102041.50;5250144;28;20029;-73
2024/03/17 04:23:21;;;;;;;17.45;8.13;;;;;;;7.72;100.00;102042.81;5262056;28;20090;-73
2024/03/17 04:25:52;;;;;;;14.98;8.07;;;;;;;7.67;100.00;102036.13;5253772;28;20040;-74
2024/03/17 04:28:23;;;;;;;17.73;8.10;;;;;;;7.64;100.00;102023.88;5259497;28;20091;-73
2024/03/17 04:31:04;;;;;;;15.70;8.25;;;;;;;7.62;100.00;102020.47;5257075;28;20032;-73
2024/03/17 04:33:34;;;;;;;26.10;9.27;;;;;;;7.61;100.00;102026.78;5260457;28;20123;-73
2024/03/17 04:36:06;;;;;;;18.27;8.70;;;;;;;7.59;100.00;102023.38;5261653;28;20099;-73
2024/03/17 04:38:37;;;;;;;18.15;8.65;;;;;;;7.59;100.00;102031.41;5254072;28;20162;-77
2024/03/17 04:41:09;;;;;;;17.20;8.80;;;;;;;7.55;100.00;102024.59;5256527;28;20403;-76
2024/03/17 04:43:40;;;;;;;17.75;8.13;;;;;;;7.53;100.00;102032.72;5257900;28;20056;-74
2024/03/17 04:46:13;;;;;;;16.60;8.40;;;;;;;7.49;100.00;102033.94;5259814;28;20028;-73
2024/03/17 04:48:44;;;;;;;16.17;9.02;;;;;;;7.44;100.00;102037.91;5256215;28;20024;-73
2024/03/17 04:51:16;;;;;;;20.55;8.63;;;;;;;7.37;100.00;102042.00;5256168;28;20532;-73
2024/03/17 04:53:47;;;;;;;17.38;8.77;;;;;;;7.33;100.00;102035.19;5254521;28;20115;-73
2024/03/17 04:56:18;;;;;;;17.38;8.38;;;;;;;7.24;100.00;102037.59;5257087;28;20099;-73
2024/03/17 04:58:48;;;;;;;19.20;8.07;;;;;;;7.17;100.00;102040.84;5258817;28;20092;-74
2024/03/17 05:01:19;;;;;;;15.10;7.50;;;;;;;7.08;100.00;102037.06;5253086;28;20020;-72
2024/03/17 05:03:52;;;;;;;17.92;8.57;;;;;;;7.06;100.00;102035.47;5255524;28;20024;-75
2024/03/17 05:06:22;;;;;;;16.52;8.52;;;;;;;7.01;100.00;102025.13;5253902;28;20024;-76
2024/03/17 05:08:52;;;;;;;18.80;8.52;;;;;;;6.96;100.00;102019.28;5253714;28;20090;-73
2024/03/17 05:11:24;;;;;;;19.35;8.85;;;;;;;6.92;100.00;102023.97;5254649;28;20022;-73
2024/03/17 05:13:54;;;;;;;14.38;7.63;;;;;;;6.89;100.00;102023.38;5252352;28;20038;-74
2024/03/17 05:16:25;;;;;;;18.50;8.63;;;;;;;6.86;100.00;102010.25;5257020;28;20469;-73
2024/03/17 05:18:56;;;;;;;17.88;8.05;;;;;;;6.82;100.00;102019.44;5250858;28;20029;-73
2024/03/17 05:21:30;;;;;;;16.33;8.77;;;;;;;6.79;100.00;102017.03;5258118;28;20090;-75
2024/03/17 05:24:02;;;;;;;16.80;8.75;;;;;;;6.75;100.00;102024.38;5257197;28;20021;-76
2024/03/17 05:26:33;;;;;;;18.30;7.40;;;;;;;6.73;100.00;102013.00;5247746;28;20111;-76
2024/03/17 05:29:03;;;;;;;17.05;8.68;;;;;;;6.71;100.00;102015.75;5255567;28;20100;-73
2024/03/17 05:31:34;;;;;;;18.45;9.02;;;;;;;6.73;100.00;102011.19;5252214;28;20506;-73
2024/03/17 05:34:07;;;;;;;16.25;8.57;;;;;;;6.77;100.00;102013.59;5255269;28;20012;-74
2024/03/17 05:36:37;;;;;;;16.23;8.30;;;;;;;6.77;100.00;102021.59;5251990;28;20024;-73
2024/03/17 05:39:08;;;;;;;18.63;7.82;;;;;;;6.78;100.00;102029.50;5253288;28;20032;-73
2024/03/17 05:41:38;;;;;;;24.98;9.25;;;;;;;6.78;100.00;102021.50;5250952;28;20028;-73
2024/03/17 05:44:09;;;;;;;19.33;8.10;;;;;;;6.81;100.00;102023.94;5255537;28;20393;-74
2024/03/17 05:46:40;;;;;;;15.98;8.40;;;;;;;6.83;100.00;102030.03;5245636;28;20123;-73
2024/03/17 05:49:10;;;;;;;15.85;8.10;;;;;;;6.85;100.00;102030.75;5250398;28;20551;-73
2024/03/17 05:51:41;;;;;;;18.15;8.57;;;;;;;6.90;100.00;102041.94;5236243;28;20398;-75
2024/03/17 05:54:12;;;;;;;15.02;7.75;;;;;;;6.95;100.00;102046.94;5247099;28;20027;-73
2024/03/17 05:56:42;;;;;;;17.75;8.18;;;;;;;7.00;100.00;102037.63;5253524;28;20024;-73
2024/03/17 05:59:12;;;;;;;19.05;8.52;;;;;;;7.10;100.00;102039.59;5256027;28;20516;-74
2024/03/17 06:01:43;;;;;;;21.48;8.65;;;;;;;7.19;100.00;102034.44;5250775;28;20047;-76
2024/03/17 06:04:13;;;;;;;16.73;8.23;;;;;;;7.26;100.00;102037.47;5254785;28;20023;-74
2024/03/17 06:06:44;;;;;;;12.57;7.28;;;;;;;7.36;100.00;102034.97;5251132;28;20431;-73
2024/03/17 06:09:17;;;;;;;15.80;7.65;;;;;;;7.45;100.00;102042.28;5252585;28;20508;-73
2024/03/17 06:11:48;;;;;;;17.45;7.93;;;;;;;7.45;100.00;102035.13;5254845;28;20028;-73
2024/03/17 06:14:18;;;;;;;16.77;7.57;;;;;;;7.47;100.00;102027.84;5249942;28;20473;-73
2024/03/17 06:16:49;;;;;;;18.88;8.32;;;;;;;7.51;100.00;102023.97;5255611;28;20032;-73
2024/03/17 06:19:20;;;;;;;13.73;7.13;;;;;;;7.57;100.00;102013.78;5251101;28;20498;-72
2024/03/17 06:21:51;;;;;;;19.40;7.75;;;;;;;7.63;100.00;102015.97;5250529;28;20111;-73
2024/03/17 06:24:21;;;;;;;20.13;9.82;;;;;;;7.68;100.00;102021.81;5255638;28;20024;-74
2024/03/17 06:26:52;;;;;;;17.88;8.65;;;;;;;7.79;100.00;102017.34;5253822;28;20066;-73
2024/03/17 06:29:22;;;;;;;16.58;8.05;;;;;;;7.92;100.00;102027.06;5255351;28;20044;-73
2024/03/17 06:31:53;;;;;;;19.55;8.75;;;;;;;8.11;100.00;102021.13;5245910;28;20082;-73
2024/03/17 06:34:23;;;;;;;17.27;8.65;;;;;;;8.30;100.00;102018.69;5253863;28;20024;-73
2024/03/17 06:36:54;;;;;;;15.50;7.45;;;;;;;8.44;100.00;102017.63;5252854;28;20409;-76
2024/03/17 06:39:24;;;;;;;18.92;8.10;;;;;;;8.50;100.00;102023.31;5253598;28;20080;-74
2024/03/17 06:41:55;;;;;;;15.52;8.18;;;;;;;8.53;100.00;102028.44;5251553;28;20474;-73
2024/03/17 06:44:29;;;;;;;17.67;7.47;;;;;;;8.59;100.00;102019.06;5251297;28;20123;-73
2024/03/17 06:47:00;;;;;;;14.73;7.82;;;;;;;8.68;100.00;102026.31;5252111;28;20453;-74
2024/03/17 06:49:30;;;;;;;16.75;7.57;;;;;;;8.74;100.00;102012.44;5253108;28;20024;-73
2024/03/17 06:52:01;;;;;;;16.02;7.80;;;;;;;8.82;100.00;102018.00;5251003;28;20052;-73
2024/03/17 06:54:33;;;;;;;17.67;8.35;;;;;;;8.85;100.00;102016.06;5253567;28;20032;-73
2024/03/17 06:57:04;;;;;;;16.10;8.05;;;;;;;9.08;100.00;102015.84;5250067;28;20032;-76
2024/03/17 06:59:34;;;;;;;17.80;8.23;;;;;;;9.24;100.00;102015.44;5251498;28;20678;-76
2024/03/17 07:02:05;;;;;;;17.70;7.93;;;;;;;9.37;100.00;102022.41;5249149;28;20040;-73
2024/03/17 07:04:36;;;;;;;18.73;7.63;;;;;;;9.40;100.00;102020.34;5255679;28;20046;-73
2024/03/17 07:07:06;;;;;;;18.27;8.35;;;;;;;9.40;100.00;102014.13;5248688;28;20024;-75
2024/03/17 07:09:37;;;;;;;15.35;8.32;;;;;;;9.42;100.00;102014.84;5253223;28;20021;-74
2024/03/17 07:12:08;;;;;;;15.98;8.10;;;;;;;9.48;100.00;102015.16;5249120;28;20016;-73
2024/03/17 07:14:39;;;;;;;15.40;7.15;;;;;;;9.52;100.00;102013.91;5251431;28;20443;-75
2024/03/17 07:17:09;;;;;;;14.20;7.03;;;;;;;9.59;100.00;102011.59;5252466;28;20027;-73
2024/03/17 07:19:40;;;;;;;12.18;6.85;;;;;;;9.68;100.00;102016.13;5253320;28;20038;-73
2024/03/17 07:22:10;;;;;;;13.70;7.38;;;;;;;9.74;100.00;102017.44;5256301;28;20020;-73
2024/03/17 07:24:43;;;;;;;16.52;7.78;;;;;;;9.83;100.00;102020.16;5256273;28;20020;-76
2024/03/17 07:27:14;;;;;;;15.35;7.55;;;;;;;9.90;100.00;102008.94;5251987;28;20097;-73
2024/03/17 07:29:44;;;;;;;15.00;8.00;;;;;;;10.04;100.00;102014.78;5254395;28;20020;-73
2024/03/17 07:32:15;;;;;;;15.10;7.47;;;;;;;10.33;100.00;102011.38;5252653;28;20031;-73
2024/03/17 07:34:46;;;;;;;16.95;7.45;;;;;;;10.53;100.00;102017.66;5255771;28;20024;-73
2024/03/17 07:37:17;;;;;;;12.55;6.32;;;;;;;10.54;100.00;102012.16;5256726;28;20385;-73
2024/03/17 07:39:49;;;;;;;12.85;7.10;;;;;;;10.56;100.00;102015.56;5256709;28;20021;-74
2024/03/17 07:42:20;;;;;;;17.50;7.13;;;;;;;10.51;100.00;102023.16;5259216;28;20031;-73
2024/03/17 07:44:51;;;;;;;11.57;6.80;;;;;;;10.53;100.00;102031.91;5255117;28;20021;-73
2024/03/17 07:47:21;;;;;;;14.45;6.63;;;;;;;10.57;100.00;102036.03;5259298;28;20098;-76
2024/03/17 07:49:51;;;;;;;12.80;6.72;;;;;;;10.59;100.00;102035.88;5256292;28;20022;-74
2024/03/17 07:52:22;;;;;;;14.63;7.32;;;;;;;10.62;100.00;102036.47;5254058;28;20016;-73
2024/03/17 07:54:52;;;;;;;14.30;6.40;;;;;;;10.67;100.00;102033.38;5258199;28;20024;-73
2024/03/17 07:57:23;;;;;;;13.40;6.80;;;;;;;10.65;100.00;102029.13;5259567;28;20016;-73
2024/03/17 07:59:54;;;;;;;13.77;7.03;;;;;;;10.71;100.00;102036.63;5256804;28;20024;-73
2024/03/17 08:02:24;;;;;;;15.50;7.55;;;;;;;10.73;100.00;102038.19;5254549;28;20495;-73
2024/03/17 08:04:55;;;;;;;17.30;7.32;;;;;;;10.75;100.00;102036.22;5256805;28;21903;-73
2024/03/17 08:07:25;;;;;;;17.52;6.43;;;;;;;10.76;100.00;102031.69;5254903;28;20016;-73
2024/03/17 08:09:56;;;;;;;13.32;6.63;;;;;;;10.75;100.00;102032.69;5255240;28;20035;-74
2024/03/17 08:12:29;;;;;;;14.18;6.97;;;;;;;10.77;100.00;102028.03;5259044;28;20032;-73
2024/03/17 08:14:59;;;;;;;15.15;6.95;;;;;;;10.83;100.00;102033.66;5252305;28;20060;-77
2024/03/17 08:17:30;;;;;;;17.73;7.78;;;;;;;10.94;100.00;102023.78;5260204;28;20082;-74
2024/03/17 08:20:01;;;;;;;19.25;7.55;;;;;;;10.99;100.00;102029.59;5252590;28;20032;-73
2024/03/17 08:22:31;;;;;;;17.75;7.80;;;;;;;11.07;100.00;102027.91;5257529;28;20016;-73
2024/03/17 08:25:02;;;;;;;10.32;6.07;;;;;;;11.27;100.00;102022.53;5257671;28;20482;-76
2024/03/17 08:27:32;;;;;;;17.88;7.28;;;;;;;11.50;100.00;102021.25;5256658;28;20034;-73
2024/03/17 08:30:03;;;;;;;13.32;6.72;;;;;;;11.95;100.00;102019.75;5253335;28;20031;-73
2024/03/17 08:32:33;;;;;;;16.90;6.60;;;;;;;12.34;100.00;102018.59;5253826;28;20028;-73
2024/03/17 08:35:05;;;;;;;15.60;6.80;;;;;;;12.60;100.00;102007.09;5254580;28;20013;-77
2024/03/17 08:37:36;;;;;;;17.65;5.88;;;;;;;13.13;100.00;102015.22;5256880;28;20027;-77
2024/03/17 08:40:08;;;;;;;11.00;6.50;;;;;;;13.60;100.00;102006.88;5252025;28;20024;-74
2024/03/17 08:42:38;;;;;;;11.90;5.53;;;;;;;14.00;100.00;102008.97;5254587;28;20032;-77
2024/03/17 08:45:11;;;;;;;12.93;6.05;;;;;;;14.30;100.00;102020.25;5253947;28;20033;-74
2024/03/17 08:47:41;;;;;;;10.95;5.80;;;;;;;14.87;100.00;102017.78;5256416;28;20043;-74
2024/03/17 08:50:12;;;;;;;11.52;5.60;;;;;;;15.22;100.00;102008.53;5254317;28;20028;-74
2024/03/17 08:52:42;;;;;;;9.88;5.15;;;;;;;14.81;100.00;102006.78;5253445;28;20561;-74
2024/03/17 08:55:14;;;;;;;14.32;5.72;;;;;;;14.85;100.00;102005.44;5255829;28;20558;-75
2024/03/17 08:57:44;;;;;;;19.95;6.38;;;;;;;14.65;100.00;102010.28;5253030;28;20833;-74
2024/03/17 09:00:15;;;;;;;10.05;4.88;;;;;;;14.29;100.00;102006.94;5257310;28;20020;-75
2024/03/17 09:02:46;;;;;;;13.63;5.50;;;;;;;14.29;100.00;102009.63;5254084;28;20020;-74
2024/03/17 09:05:16;;;;;;;11.20;4.95;;;;;;;14.17;100.00;102000.97;5254434;28;20393;-74
2024/03/17 09:07:47;;;;;;;7.53;4.88;;;;;;;13.88;100.00;102010.28;5254970;28;20020;-76
2024/03/17 09:10:17;;;;;;;9.90;4.95;;;;;;;13.86;100.00;102012.28;5251384;28;20020;-74
2024/03/17 09:12:48;;;;;;;10.68;5.03;;;;;;;13.79;100.00;102010.38;5256007;28;20474;-74
2024/03/17 09:15:18;;;;;;;11.90;5.72;;;;;;;13.73;100.00;102015.41;5254695;28;20031;-74
2024/03/17 09:17:48;;;;;;;16.35;5.57;;;;;;;13.70;100.00;102012.16;5252183;28;20466;-74
2024/03/17 09:20:19;;;;;;;11.57;4.80;;;;;;;13.79;100.00;102013.06;5253217;28;20020;-75
2024/03/17 09:22:50;;;;;;;13.85;5.75;;;;;;;13.66;100.00;102010.81;5250146;28;20077;-74
2024/03/17 09:25:20;;;;;;;8.77;4.40;;;;;;;13.64;100.00;102018.19;5256334;28;20020;-74
2024/03/17 09:27:51;;;;;;;7.47;4.45;;;;;;;13.58;100.00;102008.03;5252585;28;20543;-74
2024/03/17 09:30:21;;;;;;;8.63;4.53;;;;;;;13.77;100.00;102001.59;5256287;28;20020;-74
2024/03/17 09:32:52;;;;;;;11.68;4.57;;;;;;;13.89;100.00;102003.84;5246421;28;20069;-74
2024/03/17 09:35:22;;;;;;;6.28;4.57;;;;;;;14.03;100.00;102001.59;5254647;28;20035;-74
2024/03/17 09:37:53;;;;;;;11.75;5.03;;;;;;;14.06;100.00;102002.13;5255547;28;20489;-77
2024/03/17 09:40:23;;;;;;;9.38;4.25;;;;;;;14.15;100.00;102005.69;5254897;28;20016;-78
2024/03/17 09:42:55;;;;;;;8.63;4.43;;;;;;;13.92;100.00;101994.63;5250972;28;20074;-75
2024/03/17 09:45:28;;;;;;;10.70;4.05;;;;;;;13.91;100.00;102004.56;5252773;28;20054;-76
2024/03/17 09:47:59;;;;;;;9.32;4.55;;;;;;;14.00;100.00;101997.34;5251421;28;20021;-75
2024/03/17 09:50:31;;;;;;;9.75;4.32;;;;;;;14.09;100.00;101992.84;5256481;28;20016;-77
2024/03/17 09:53:02;;;;;;;14.05;5.03;;;;;;;14.08;100.00;101986.59;5248940;28;20046;-77
2024/03/17 09:55:33;;;;;;;9.25;4.22;;;;;;;14.21;100.00;101987.00;5255986;28;20016;-74
2024/03/17 09:58:04;;;;;;;9.52;3.65;;;;;;;14.19;100.00;101991.69;5250738;28;20048;-76
2024/03/17 10:00:34;;;;;;;5.10;3.03;;;;;;;14.20;100.00;101992.53;5253282;28;20137;-74
2024/03/17 10:03:05;;;;;;;7.93;3.97;;;;;;;14.06;100.00;101988.63;5252288;28;20025;-74
2024/03/17 10:05:35;;;;;;;10.98;3.88;;;;;;;14.01;100.00;101988.25;5252858;28;20025;-74
2024/03/17 10:08:06;;;;;;;7.93;3.63;;;;;;;13.94;100.00;101987.19;5253623;28;20012;-76
2024/03/17 10:10:36;;;;;;;13.13;3.42;;;;;;;13.85;100.00;101988.16;5249292;28;20016;-74
2024/03/17 10:13:12;;;;;;;8.30;3.72;;;;;;;13.85;100.00;101990.84;5249974;28;20021;-74
2024/03/17 10:15:49;;;;;;;8.52;3.50;;;;;;;13.86;100.00;101984.47;5252669;28;20057;-75
2024/03/17 10:18:23;;;;;;;6.45;3.03;;;;;;;13.96;100.00;101987.91;5252929;28;20027;-74
2024/03/17 10:21:01;;;;;;;8.10;3.85;;;;;;;13.80;100.00;101987.78;5251147;28;20509;-74
2024/03/17 10:23:31;;;;;;;12.10;3.75;;;;;;;13.90;100.00;101980.44;5249042;28;20024;-74
2024/03/17 10:26:02;;;;;;;10.65;3.80;;;;;;;13.86;100.00;101984.47;5252991;28;20024;-74
2024/03/17 10:28:33;;;;;;;9.25;3.03;;;;;;;13.82;100.00;101986.63;5254136;28;20022;-74
2024/03/17 10:31:03;;;;;;;8.63;3.42;;;;;;;13.85;100.00;101998.94;5246234;28;20021;-75
2024/03/17 10:33:34;;;;;;;8.35;3.03;;;;;;;13.88;100.00;101985.16;5253821;28;20019;-74
2024/03/17 10:36:05;;;;;;;6.65;3.15;;;;;;;13.87;100.00;101975.38;5251486;28;20043;-76
2024/03/17 10:38:36;;;;;;;5.85;3.17;;;;;;;14.02;100.00;101978.31;5256036;28;20020;-78
2024/03/17 10:41:06;;;;;;;6.57;3.42;;;;;;;14.09;100.00;101971.25;5264464;28;20017;-74
2024/03/17 10:43:38;;;;;;;8.23;3.10;;;;;;;14.31;100.00;101976.09;5251496;28;20500;-77
2024/03/17 10:46:11;;;;;;;8.20;3.20;;;;;;;14.45;100.00;101961.09;5249168;28;20028;-75
2024/03/17 10:48:44;;;;;;;9.82;3.58;;;;;;;14.53;100.00;101957.59;5249944;28;20031;-74
2024/03/17 10:51:17;;;;;;;5.57;2.88;;;;;;;14.69;100.00;101958.47;5252949;28;20044;-74
2024/03/17 10:53:50;;;;;;;12.90;3.67;;;;;;;14.84;100.00;101958.66;5248203;28;20122;-75
2024/03/17 10:56:20;;;;;;;7.28;3.05;;;;;;;14.95;100.00;101965.59;5251197;28;20017;-74
2024/03/17 10:58:56;;;;;;;10.73;3.85;;;;;;;14.81;100.00;101958.16;5247110;28;20032;-76
2024/03/17 11:01:28;;;;;;;7.60;3.13;;;;;;;14.79;100.00;101955.63;5252664;28;20094;-77
2024/03/17 11:03:59;;;;;;;4.82;3.13;;;;;;;14.81;100.00;101956.31;5252609;28;20044;-74
2024/03/17 11:06:29;;;;;;;8.00;3.15;;;;;;;14.75;100.00;101960.50;5240074;28;20068;-74
2024/03/17 11:09:00;;;;;;;10.05;3.50;;;;;;;14.69;100.00;101957.63;5246185;28;20044;-74
2024/03/17 11:11:37;;;;;;;8.23;2.97;;;;;;;14.82;100.00;101954.47;5241669;28;20386;-74
2024/03/17 11:14:19;;;;;;;12.60;3.53;;;;;;;14.84;100.00;101952.41;5243180;28;20042;-74
2024/03/17 11:16:50;;;;;;;9.15;3.47;;;;;;;14.99;100.00;101945.34;5249330;28;20115;-74
2024/03/17 11:19:20;;;;;;;9.63;2.97;;;;;;;14.88;100.00;101945.69;5249836;28;20470;-74
2024/03/17 11:21:51;;;;;;;7.07;3.75;;;;;;;14.95;100.00;101935.88;5244176;28;20023;-79
2024/03/17 11:24:21;;;;;;;12.45;3.17;;;;;;;14.93;100.00;101940.63;5249653;28;20478;-77
2024/03/17 11:26:52;;;;;;;7.28;3.38;;;;;;;15.02;100.00;101935.03;5249521;28;20052;-74
2024/03/17 11:29:30;;;;;;;7.53;3.13;;;;;;;15.11;100.00;101935.91;5254214;28;20024;-74
2024/03/17 11:32:00;;;;;;;7.03;3.13;;;;;;;14.99;100.00;101935.38;5246684;28;20082;-77
2024/03/17 11:34:35;;;;;;;12.05;3.15;;;;;;;15.00;100.00;101928.09;5255957;28;20024;-74